Latest Coastal Weather Observations for Low Rocky Point

IDT60701

Issued at 10:52 am EDT Wednesday 1 April 2015 (issued every 10 minutes, with the page automatically refreshed every 10 minutes)

About coastal observations | Map of coastal stations | Coastal observations for TAS | Marine services | Other Formats
Station Details ID: 097080 Name: LOW ROCKY POINT Lat: -42.98 Lon: 145.50 Height: 34.0 m
Data from the previous 72 hours. | See also: Recent months at Low Rocky Point
Date/Time
EDT
Temp

°C
Wind Pressure Rain
since 9am
mm
Weather Cloud Vis
km
Sea
Height
m
Swell
Dir
 
Speed
knots
Gust
knots
hPa Trend Height
m
Period
s
Dir
01/10:30am 20.9 NNW 18 27 1011.3 - 0.0 - - - - - - -
01/10:00am 20.2 NNW 20 30 1011.5 - 0.0 - - - - - - -
01/09:47am 19.6 NNW 17 27 1011.8 - 0.0 - - - - - - -
01/09:30am 18.6 NNW 16 23 1012.0 - 0.0 - - - - - - -
01/09:00am 17.7 N 16 21 1012.2 - 0.8 - - - - - - -
01/08:30am 16.5 N 14 19 1012.5 - 0.8 - - - - - - -
01/08:00am 15.5 N 15 21 1012.6 - 0.8 - - - - - - -
01/07:30am 14.7 N 14 18 1012.9 - 0.8 - - - - - - -
01/07:00am 14.1 N 13 19 1013.2 - 0.8 - - - - - - -
01/06:30am 13.7 N 16 21 1013.0 - 0.8 - - - - - - -
01/06:00am 13.3 N 13 17 1014.0 - 0.8 - - - - - - -
01/05:30am 12.9 N 12 17 1014.4 - 0.8 - - - - - - -
01/05:00am 12.6 N 12 16 1015.0 - 0.8 - - - - - - -
01/04:30am 12.6 N 13 16 1015.5 - 0.8 - - - - - - -
01/04:00am 12.1 N 11 14 1016.3 - 0.8 - - - - - - -
01/03:30am 12.0 N 11 13 1017.0 - 0.8 - - - - - - -
01/03:00am 12.4 N 12 17 1017.7 - 0.8 - - - - - - -
01/02:30am 12.8 N 11 17 1018.3 - 0.8 - - - - - - -
01/02:00am 12.8 N 13 19 1018.8 - 0.8 - - - - - - -
01/01:30am 12.8 N 12 17 1019.2 - 0.8 - - - - - - -
01/01:00am 13.0 NNW 11 15 1019.7 - 0.8 - - - - - - -
01/12:30am 13.0 N 11 15 1020.1 - 0.8 - - - - - - -
01/12:00am 13.0 N 8 13 1020.5 - 0.8 Recent precip. - - - - - -
 
Date/Time
EDT
Temp

°C
Wind Pressure Rain
since 9am
mm
Weather Cloud Vis
km
Sea
Height
m
Swell
Dir
 
Speed
knots
Gust
knots
hPa Trend Height
m
Period
s
Dir
31/11:30pm 13.1 N 7 9 1020.9 - 0.6 - - - - - - -
31/11:00pm 13.9 NW 14 20 1021.2 - 0.6 Rain - - - - - -
31/10:30pm 14.4 NW 17 19 1021.2 - 0.4 - - - - - - -
31/10:00pm 14.3 NW 16 20 1021.7 - 0.4 - - - - - - -
31/09:30pm 14.5 NNW 15 20 1022.0 - 0.4 - - - - - - -
31/09:00pm 14.5 NW 18 22 1022.1 - 0.4 - - - - - - -
31/08:30pm 14.6 NW 17 21 1022.0 - 0.4 - - - - - - -
31/08:00pm 14.6 NW 17 22 1022.0 - 0.4 - - - - - - -
31/07:30pm 14.6 NNW 16 22 1021.8 - 0.4 - - - - - - -
31/07:00pm 14.6 NNW 16 20 1021.6 - 0.4 - - - - - - -
31/06:30pm 14.8 NW 20 24 1021.5 - 0.4 - - - - - - -
31/06:00pm 14.6 NNW 18 23 1021.6 - 0.4 - - - - - - -
31/05:30pm 15.1 NNW 19 23 1021.4 - 0.4 - - - - - - -
31/05:00pm 15.2 NNW 19 25 1021.6 - 0.4 - - - - - - -
31/04:30pm 15.1 NNW 18 25 1021.8 - 0.4 - - - - - - -
31/04:00pm 14.8 NNW 20 25 1021.9 - 0.4 - - - - - - -
31/03:30pm 16.0 NNW 19 23 1022.2 - 0.4 - - - - - - -
31/03:00pm 15.7 NNW 19 23 1022.4 - 0.4 - - - - - - -
31/02:30pm 15.7 NNW 18 23 1022.7 - 0.4 - - - - - - -
31/02:00pm 14.6 NNW 18 26 1023.0 - 0.4 - - - - - - -
31/01:30pm 14.7 NNW 19 24 1023.3 - 0.4 - - - - - - -
31/01:00pm 13.5 NW 20 26 1023.7 - 0.4 - - - - - - -
31/12:30pm 14.1 NW 22 27 1024.0 - 0.4 - - - - - - -
31/12:00pm 14.0 NW 23 30 1024.0 - 0.4 - - - - - - -
31/11:30am 14.4 NW 20 26 1024.1 - 0.4 - - - - - - -
31/11:00am 14.0 NW 20 25 1024.2 - 0.4 - - - - - - -
31/10:30am 13.7 NW 18 24 1024.2 - 0.4 - - - - - - -
31/10:24am 13.4 NW 17 24 1024.1 - 0.4 - - - - - - -
31/10:00am 13.2 NNW 14 17 1024.1 - 0.4 Rain - - - - - -
31/09:30am 13.1 NNW 13 17 1024.2 - 0.2 - - - - - - -
31/09:00am 13.0 NNW 9 11 1024.1 - 1.0 Recent precip. - - - - - -
31/08:30am 12.7 NNW 10 13 1024.1 - 0.6 - - - - - - -
31/08:00am 12.6 NNW 13 16 1023.9 - 0.4 Recent precip. - - - - - -
31/07:30am 12.6 N 11 16 1023.7 - 0.2 - - - - - - -
31/07:00am 12.6 N 10 13 1023.6 - 0.2 Recent precip. - - - - - -
31/06:30am 12.7 N 10 13 1023.3 - 0.0 - - - - - - -
31/06:00am 13.0 N 9 13 1023.2 - 0.0 - - - - - - -
31/05:30am 14.1 NW 14 19 1023.1 - 0.0 - - - - - - -
31/05:00am 13.5 NW 15 19 1023.2 - 0.0 - - - - - - -
31/04:30am 13.5 NW 19 24 1023.2 - 0.0 - - - - - - -
31/04:00am 13.5 NW 15 20 1023.3 - 0.0 - - - - - - -
31/03:30am 14.0 WNW 16 20 1023.4 - 0.0 - - - - - - -
31/03:00am 14.1 NW 18 24 1023.4 - 0.0 - - - - - - -
31/02:51am 14.0 NW 13 21 1023.4 - 0.0 - - - - - - -
31/02:30am 13.8 NNW 8 11 1023.6 - 0.0 - - - - - - -
31/02:00am 13.6 N 9 13 1023.5 - 0.0 - - - - - - -
31/01:30am 14.2 NNW 10 12 1023.6 - 0.0 - - - - - - -
31/01:00am 14.1 NNW 12 15 1023.5 - 0.0 - - - - - - -
31/12:30am 13.8 N 9 11 1023.8 - 0.0 - - - - - - -
31/12:00am 14.0 NNW 9 12 1023.8 - 0.0 - - - - - - -
 
Date/Time
EDT
Temp

°C
Wind Pressure Rain
since 9am
mm
Weather Cloud Vis
km
Sea
Height
m
Swell
Dir
 
Speed
knots
Gust
knots
hPa Trend Height
m
Period
s
Dir
30/11:30pm 14.6 NW 14 20 1023.9 - 0.0 - - - - - - -
30/11:00pm 14.6 NW 14 18 1023.9 - 0.0 - - - - - - -
30/10:30pm 14.6 NW 15 18 1023.8 - 0.0 - - - - - - -
30/10:00pm 14.6 NNW 16 21 1023.6 - 0.0 - - - - - - -
30/09:30pm 14.7 WNW 17 21 1023.5 - 0.0 - - - - - - -
30/09:00pm 14.6 WNW 19 23 1023.5 - 0.0 - - - - - - -
30/08:30pm 14.7 NW 18 25 1023.3 - 0.0 - - - - - - -
30/08:00pm 14.7 NW 19 25 1023.0 - 0.0 - - - - - - -
30/07:30pm 14.6 WNW 21 25 1022.7 - 0.0 - - - - - - -
30/07:00pm 14.5 NW 18 22 1022.4 - 0.0 - - - - - - -
30/06:30pm 14.7 WNW 23 27 1021.9 - 0.0 - - - - - - -
30/06:00pm 15.1 WNW 21 24 1021.5 - 0.0 - - - - - - -
30/05:30pm 15.0 NW 17 23 1021.4 - 0.0 - - - - - - -
30/05:00pm 15.0 NW 18 22 1021.4 - 0.0 - - - - - - -
30/04:30pm 14.3 WNW 21 25 1021.1 - 0.0 - - - - - - -
30/04:00pm 15.4 NW 20 24 1020.9 - 0.0 - - - - - - -
30/03:30pm 15.2 NW 20 25 1020.9 - 0.0 - - - - - - -
30/03:00pm 15.7 NW 18 25 1020.9 - 0.0 - - - - - - -
30/02:30pm 16.2 NW 19 23 1020.6 - 0.0 - - - - - - -
30/02:00pm 16.6 NW 19 24 1020.7 - 0.0 - - - - - - -
30/01:30pm 16.2 NW 18 23 1020.4 - 0.0 - - - - - - -
30/01:00pm 15.3 NW 18 21 1020.7 - 0.0 - - - - - - -
30/12:30pm 15.2 NW 17 21 1020.4 - 0.0 - - - - - - -
30/12:00pm 14.2 NW 18 24 1020.5 - 0.0 - - - - - - -
30/11:30am 13.8 WNW 18 26 1020.1 - 0.0 - - - - - - -
30/11:25am 13.4 NW 19 26 1020.1 - 0.0 - - - - - - -
30/11:00am 15.0 NNW 19 24 1020.0 - 0.0 - - - - - - -
30/10:30am 14.9 NNW 16 22 1020.0 - 0.0 - - - - - - -
30/10:00am 14.6 NNW 15 19 1019.8 - 0.0 - - - - - - -
30/09:30am 13.9 NNW 16 20 1019.4 - 0.0 - - - - - - -
30/09:00am 13.9 NNW 14 18 1019.2 - 11.4 - - - - - - -
30/08:30am 13.6 NNW 16 21 1019.0 - 11.4 - - - - - - -
30/08:00am 13.4 NW 18 23 1018.9 - 11.4 - - - - - - -
30/07:30am 13.3 NW 17 21 1018.7 - 11.4 - - - - - - -
30/07:00am 13.7 WNW 20 23 1018.7 - 11.4 - - - - - - -
30/06:30am 14.1 WNW 20 27 1018.3 - 11.4 - - - - - - -
30/06:00am 14.5 NW 24 31 1018.3 - 11.4 - - - - - - -
30/05:30am 14.5 NW 23 30 1017.9 - 11.4 - - - - - - -
30/05:00am 14.1 NW 22 26 1018.0 - 11.4 - - - - - - -
30/04:30am 13.9 NW 22 27 1017.8 - 11.4 - - - - - - -
30/04:00am 14.0 NW 24 30 1017.6 - 11.4 Rain - - - - - -
30/03:30am 14.0 NW 23 29 1017.7 - 11.2 - - - - - - -
30/03:00am 14.0 NW 20 26 1018.0 - 11.2 Recent precip. - - - - - -
30/02:30am 14.4 NW 16 20 1017.9 - 11.0 - - - - - - -
30/02:00am 12.8 N 10 15 1018.1 - 10.8 - - - - - - -
30/01:30am 13.0 NNW 13 21 1017.9 - 10.8 - - - - - - -
30/01:26am 13.4 NNW 17 24 1017.8 - 10.8 - - - - - - -
30/01:00am 14.1 NW 21 25 1018.0 - 10.8 - - - - - - -
30/12:30am 14.1 NW 21 25 1018.0 - 10.8 - - - - - - -
30/12:00am 14.2 NW 19 24 1018.3 - 10.8 - - - - - - -
 
Date/Time
EDT
Temp

°C
Wind Pressure Rain
since 9am
mm
Weather Cloud Vis
km
Sea
Height
m
Swell
Dir
 
Speed
knots
Gust
knots
hPa Trend Height
m
Period
s
Dir
29/11:30pm 14.2 NW 19 23 1018.3 - 10.8 - - - - - - -
29/11:00pm 14.1 NW 19 23 1018.6 - 10.8 - - - - - - -
29/10:30pm 14.2 NW 16 19 1018.5 - 10.8 - - - - - - -
29/10:00pm 14.3 NW 21 24 1018.5 - 10.8 - - - - - - -
29/09:30pm 14.3 NW 19 24 1018.1 - 10.8 - - - - - - -
29/09:00pm 14.1 NW 17 22 1018.1 - 10.8 - - - - - - -
29/08:30pm 13.9 NW 15 19 1017.8 - 10.8 - - - - - - -
29/08:00pm 13.6 NW 16 20 1017.7 - 10.8 - - - - - - -
29/07:30pm 13.5 NW 17 20 1017.3 - 10.8 - - - - - - -
29/07:00pm 13.6 NW 16 20 1017.3 - 10.8 - - - - - - -
29/06:30pm 13.9 NW 16 19 1017.0 - 10.8 - - - - - - -
29/06:00pm 14.3 WNW 15 18 1017.0 - 10.8 - - - - - - -
29/05:30pm 14.6 WNW 15 18 1016.7 - 10.8 - - - - - - -
29/05:00pm 14.3 WNW 15 16 1016.9 - 10.8 - - - - - - -
29/04:30pm 14.6 WNW 15 18 1016.6 - 10.8 - - - - - - -
29/04:00pm 14.9 WNW 15 18 1016.7 - 10.8 - - - - - - -
29/03:30pm 15.1 WNW 13 16 1016.8 - 10.8 - - - - - - -
29/03:00pm 15.7 W 13 16 1016.7 - 10.8 - - - - - - -
29/02:30pm 14.4 W 14 17 1016.6 - 10.8 - - - - - - -
29/02:00pm 14.0 WNW 16 20 1016.6 - 10.8 - - - - - - -
29/01:30pm 14.3 W 13 17 1016.4 - 10.8 - - - - - - -
29/01:00pm 13.8 W 14 17 1016.2 - 10.8 - - - - - - -
29/12:30pm 13.4 WNW 16 19 1016.0 - 10.8 - - - - - - -
29/12:00pm 12.2 WNW 18 22 1016.1 - 10.8 Recent precip. - - - - - -
29/11:30am 12.4 W 20 24 1016.1 - 10.6 - - - - - - -
29/11:00am 12.4 W 21 25 1015.9 - 10.4 Rain - - - - - -

Other Formats:

Comma delimited format used in spreadsheet applications
http://www.bom.gov.au/fwo/IDT60701/IDT60701.95961.axf

JavaScript Object Notation format (JSON) in row-major order
http://www.bom.gov.au/fwo/IDT60701/IDT60701.95961.json